createdAt,value
2023-04-02T00:00:13.392Z,82.63
2023-04-02T00:03:16.157Z,84.06
2023-04-02T00:06:40.262Z,83.47
2023-04-02T00:09:42.838Z,83.15
2023-04-02T00:13:19.216Z,83.27
2023-04-02T00:16:24.269Z,83.69
2023-04-02T00:19:38.952Z,82.39
2023-04-02T00:22:44.480Z,82.16
2023-04-02T00:25:47.420Z,83.12
2023-04-02T00:28:51.669Z,82.23
2023-04-02T00:31:55.535Z,83.02
2023-04-02T00:34:59.460Z,83.43
2023-04-02T00:38:02.383Z,82.12
2023-04-02T00:41:07.624Z,82.29
2023-04-02T00:44:13.175Z,83.35
2023-04-02T00:47:20.584Z,83.31
2023-04-02T00:50:36.745Z,83.89
2023-04-02T00:53:40.837Z,83.75
2023-04-02T00:56:45.833Z,83.22
2023-04-02T00:59:51.178Z,83.83
2023-04-02T01:03:16.813Z,83.66
2023-04-02T01:06:19.927Z,83.42
2023-04-02T01:09:59.884Z,82.86
2023-04-02T01:13:14.197Z,82.91
2023-04-02T01:16:31.403Z,82.04
2023-04-02T01:19:52.733Z,82.00
2023-04-02T01:23:23.748Z,82.63
2023-04-02T01:26:51.805Z,82.87
2023-04-02T01:29:58.485Z,82.74
2023-04-02T01:33:01.450Z,82.75
2023-04-02T01:36:23.612Z,83.28
2023-04-02T01:39:37.806Z,82.49
2023-04-02T01:42:45.551Z,83.61
2023-04-02T01:45:47.792Z,82.80
2023-04-02T01:48:50.217Z,82.72
2023-04-02T01:51:56.896Z,82.14
2023-04-02T01:55:03.306Z,82.45
2023-04-02T01:58:06.411Z,82.18
2023-04-02T02:01:16.752Z,82.34
2023-04-02T02:04:19.815Z,82.04
2023-04-02T02:07:24.333Z,82.42
2023-04-02T02:10:36.285Z,82.80
2023-04-02T02:16:44.542Z,82.34
2023-04-02T02:19:52.192Z,82.42
2023-04-02T02:22:56.607Z,82.83
2023-04-02T02:25:59.326Z,82.86
2023-04-02T02:29:03.599Z,82.46
2023-04-02T02:32:07.991Z,82.70
2023-04-02T02:35:13.433Z,81.85
2023-04-02T02:38:34.152Z,81.77
2023-04-02T02:41:49.370Z,82.55
2023-04-02T02:44:54.168Z,81.73
2023-04-02T02:47:57.645Z,81.92
2023-04-02T02:51:01.329Z,81.68
2023-04-02T02:54:05.692Z,82.59
2023-04-02T02:57:14.621Z,82.11
2023-04-02T03:00:19.958Z,82.20
2023-04-02T03:03:29.128Z,82.04
2023-04-02T03:06:36.996Z,82.38
2023-04-02T03:09:52.708Z,82.10
2023-04-02T03:13:04.319Z,82.20
2023-04-02T03:16:09.307Z,81.81
2023-04-02T03:19:29.937Z,82.13
2023-04-02T03:22:50.528Z,82.20
2023-04-02T03:26:02.081Z,82.01
2023-04-02T03:29:21.209Z,82.30
2023-04-02T03:32:35.883Z,81.33
2023-04-02T03:35:47.442Z,81.59
2023-04-02T03:38:57.777Z,82.22
2023-04-02T03:42:14.895Z,81.37
2023-04-02T03:45:23.090Z,82.03
2023-04-02T03:48:33.288Z,81.87
2023-04-02T03:51:53.715Z,82.35
2023-04-02T03:55:01.010Z,81.66
2023-04-02T03:58:12.164Z,81.32
2023-04-02T04:01:39.907Z,81.61
2023-04-02T04:04:45.071Z,81.70
2023-04-02T04:07:47.905Z,81.51
2023-04-02T04:10:58.023Z,81.36
2023-04-02T04:14:16.547Z,80.81
2023-04-02T04:17:30.618Z,81.69
2023-04-02T04:20:58.265Z,81.85
2023-04-02T04:24:22.753Z,82.46
2023-04-02T04:28:06.018Z,81.13
2023-04-02T04:31:34.363Z,81.44
2023-04-02T04:34:47.050Z,81.91
2023-04-02T04:37:59.318Z,82.58
2023-04-02T04:41:13.231Z,81.65
2023-04-02T04:44:29.322Z,81.24
2023-04-02T04:47:37.488Z,82.18
2023-04-02T04:51:10.197Z,81.49
2023-04-02T04:54:17.118Z,81.02
2023-04-02T04:57:34.436Z,81.01
2023-04-02T05:01:07.426Z,81.83
2023-04-02T05:04:20.920Z,86.83
2023-04-02T05:07:28.549Z,89.30
2023-04-02T05:10:45.021Z,89.18
2023-04-02T05:13:59.710Z,88.47
2023-04-02T05:17:15.347Z,89.10
2023-04-02T05:20:26.244Z,89.12
2023-04-02T05:23:46.077Z,91.04
2023-04-02T05:26:52.403Z,90.76
2023-04-02T05:30:03.739Z,90.22
2023-04-02T05:33:18.299Z,92.31
2023-04-02T05:36:27.277Z,98.72
2023-04-02T05:39:33.631Z,100.00
2023-04-02T05:42:38.764Z,100.00
2023-04-02T05:45:54.509Z,100.00
2023-04-02T05:48:59.426Z,100.00
2023-04-02T05:52:06.380Z,100.00
2023-04-02T05:55:13.162Z,100.00
2023-04-02T06:01:48.072Z,100.00
2023-04-02T06:05:23.233Z,100.00
2023-04-02T06:08:35.736Z,100.00
2023-04-02T06:11:45.826Z,100.00
2023-04-02T06:14:52.037Z,100.00
2023-04-02T06:18:23.892Z,100.00
2023-04-02T06:21:44.511Z,100.00
2023-04-02T06:24:53.163Z,100.00
2023-04-02T06:27:59.682Z,99.19
2023-04-02T06:31:13.370Z,97.39
2023-04-02T06:34:27.111Z,96.74
2023-04-02T06:37:43.883Z,96.54
2023-04-02T06:41:05.796Z,95.73
2023-04-02T06:44:36.884Z,95.38
2023-04-02T06:48:16.903Z,94.19
2023-04-02T06:51:27.261Z,95.26
2023-04-02T06:54:30.033Z,95.08
2023-04-02T06:57:36.609Z,94.13
2023-04-02T07:00:42.565Z,93.01
2023-04-02T07:03:48.668Z,93.42
2023-04-02T07:07:01.682Z,91.08
2023-04-02T07:10:10.042Z,90.60
2023-04-02T07:13:20.796Z,89.72
2023-04-02T07:16:28.103Z,89.20
2023-04-02T07:19:33.220Z,89.03
2023-04-02T07:22:36.069Z,88.47
2023-04-02T07:25:40.059Z,81.80
2023-04-02T07:28:45.696Z,71.60
2023-04-02T07:31:51.009Z,66.19
2023-04-02T07:34:53.212Z,66.69
2023-04-02T07:37:55.598Z,74.31
2023-04-02T07:40:57.702Z,80.46
2023-04-02T07:43:59.917Z,83.38
2023-04-02T07:47:04.238Z,84.71
2023-04-02T07:50:08.778Z,85.18
2023-04-02T07:53:43.721Z,85.72
2023-04-02T07:56:45.874Z,85.36
2023-04-02T07:59:48.262Z,85.98
2023-04-02T08:02:52.331Z,85.43
2023-04-02T08:05:58.549Z,78.85
2023-04-02T08:09:01.356Z,76.12
2023-04-02T08:12:03.566Z,72.53
2023-04-02T08:15:07.485Z,70.52
2023-04-02T08:18:11.231Z,69.15
2023-04-02T08:21:16.344Z,68.42
2023-04-02T08:24:19.515Z,66.81
2023-04-02T08:27:22.528Z,67.50
2023-04-02T08:30:24.721Z,71.22
2023-04-02T08:33:27.227Z,73.82
2023-04-02T08:36:33.663Z,73.94
2023-04-02T08:39:35.968Z,75.62
2023-04-02T08:42:47.180Z,81.57
2023-04-02T08:46:28.448Z,82.01
2023-04-02T08:49:51.114Z,93.85
2023-04-02T08:52:53.684Z,100.00
2023-04-02T08:56:05.863Z,100.00
2023-04-02T08:59:32.626Z,87.94
2023-04-02T09:02:43.497Z,81.70
2023-04-02T09:05:48.288Z,78.51
2023-04-02T09:08:52.088Z,76.58
2023-04-02T09:12:07.183Z,75.39
2023-04-02T09:18:42.686Z,75.26
2023-04-02T09:21:58.120Z,74.43
2023-04-02T09:25:02.762Z,71.77
2023-04-02T09:28:06.185Z,70.42
2023-04-02T09:34:37.581Z,73.57
2023-04-02T09:38:24.126Z,82.71
2023-04-02T09:41:55.717Z,85.73
2023-04-02T09:45:21.626Z,86.28
2023-04-02T09:48:34.350Z,86.46
2023-04-02T09:51:36.747Z,86.49
2023-04-02T09:54:44.821Z,86.90
2023-04-02T09:57:50.200Z,85.87
2023-04-02T10:00:54.290Z,86.48
2023-04-02T10:03:57.852Z,86.15
2023-04-02T10:06:59.992Z,86.33
2023-04-02T10:10:18.825Z,86.91
2023-04-02T10:13:26.620Z,87.27
2023-04-02T10:16:42.308Z,88.39
2023-04-02T10:19:51.717Z,90.41
2023-04-02T10:22:57.151Z,91.04
2023-04-02T10:26:15.974Z,92.35
2023-04-02T10:29:34.056Z,92.54
2023-04-02T10:33:06.973Z,94.84
2023-04-02T10:36:20.086Z,100.00
2023-04-02T10:39:42.215Z,100.00
2023-04-02T10:42:44.776Z,100.00
2023-04-02T10:46:01.227Z,100.00
2023-04-02T10:49:48.409Z,87.76
2023-04-02T10:53:16.035Z,82.00
2023-04-02T10:56:19.721Z,79.42
2023-04-02T10:59:27.937Z,78.00
2023-04-02T11:02:36.565Z,77.35
2023-04-02T11:05:57.066Z,76.43
2023-04-02T11:09:07.803Z,75.33
2023-04-02T11:12:21.910Z,75.06
2023-04-02T11:15:24.337Z,73.95
2023-04-02T11:18:37.517Z,73.25
2023-04-02T11:22:14.573Z,76.38
2023-04-02T11:25:24.686Z,80.68
2023-04-02T11:29:19.905Z,83.38
2023-04-02T11:32:49.844Z,83.64
2023-04-02T11:35:55.223Z,82.73
2023-04-02T11:39:04.511Z,82.32
2023-04-02T11:42:19.064Z,83.34
2023-04-02T11:45:24.626Z,83.62
2023-04-02T11:48:36.465Z,84.44
2023-04-02T11:52:12.088Z,85.10
2023-04-02T11:55:36.422Z,83.04
2023-04-02T11:59:17.983Z,82.18
2023-04-02T12:02:40.493Z,80.90
2023-04-02T12:09:59.630Z,79.59
2023-04-02T12:13:02.743Z,81.62
2023-04-02T12:16:33.221Z,83.08
2023-04-02T12:19:38.749Z,87.33
2023-04-02T12:22:51.058Z,85.32
2023-04-02T12:25:58.710Z,86.12
2023-04-02T12:29:20.434Z,84.64
2023-04-02T12:32:29.559Z,87.49
2023-04-02T12:35:36.609Z,87.14
2023-04-02T12:38:47.069Z,89.35
2023-04-02T12:41:49.457Z,95.58
2023-04-02T12:44:51.951Z,94.01
2023-04-02T12:47:54.712Z,92.34
2023-04-02T12:50:57.873Z,91.13
2023-04-02T12:54:00.217Z,90.56
2023-04-02T12:57:23.093Z,88.69
2023-04-02T13:00:27.321Z,87.67
2023-04-02T13:03:29.707Z,87.38
2023-04-02T13:06:33.813Z,89.41
2023-04-02T13:09:45.980Z,89.06
2023-04-02T13:12:48.185Z,87.48
2023-04-02T13:16:15.783Z,87.53
2023-04-02T13:19:17.903Z,87.67
2023-04-02T13:22:32.238Z,88.51
2023-04-02T13:25:39.403Z,88.24
2023-04-02T13:29:05.167Z,87.47
2023-04-02T13:32:14.178Z,86.43
2023-04-02T13:35:16.749Z,83.85
2023-04-02T13:38:19.103Z,82.62
2023-04-02T13:41:32.301Z,82.82
2023-04-02T13:48:01.213Z,82.68
2023-04-02T13:51:03.669Z,81.68
2023-04-02T13:54:14.441Z,81.51
2023-04-02T13:57:17.010Z,81.16
2023-04-02T14:00:20.105Z,80.19
2023-04-02T14:03:23.343Z,79.44
2023-04-02T14:07:03.879Z,79.77
2023-04-02T14:10:34.262Z,86.27
2023-04-02T14:13:48.048Z,91.87
2023-04-02T14:17:10.036Z,93.77
2023-04-02T14:20:36.836Z,96.28
2023-04-02T14:24:20.941Z,99.17
2023-04-02T14:27:52.182Z,99.31
2023-04-02T14:31:18.335Z,99.99
2023-04-02T14:34:26.022Z,98.29
2023-04-02T14:37:42.028Z,98.39
2023-04-02T14:40:54.040Z,97.50
2023-04-02T14:44:05.436Z,93.89
2023-04-02T14:47:15.711Z,90.32
2023-04-02T14:50:24.123Z,88.08
2023-04-02T14:53:58.703Z,86.63
2023-04-02T14:57:10.717Z,84.27
2023-04-02T15:00:28.160Z,82.63
2023-04-02T15:03:38.718Z,83.93
2023-04-02T15:06:48.013Z,83.87
2023-04-02T15:10:08.969Z,87.83
2023-04-02T15:13:40.626Z,89.64
2023-04-02T15:16:44.400Z,90.78
2023-04-02T15:19:47.631Z,90.71
2023-04-02T15:23:07.442Z,89.13
2023-04-02T15:26:30.642Z,87.49
2023-04-02T15:30:09.514Z,85.53
2023-04-02T15:33:30.958Z,86.95
2023-04-02T15:36:39.222Z,86.02
2023-04-02T15:40:11.232Z,85.79
2023-04-02T15:43:22.321Z,87.08
2023-04-02T15:46:50.336Z,86.37
2023-04-02T15:50:04.824Z,87.33
2023-04-02T15:53:26.585Z,86.78
2023-04-02T15:56:31.474Z,86.52
2023-04-02T16:00:16.624Z,86.21
2023-04-02T16:03:59.470Z,86.76
2023-04-02T16:07:49.057Z,85.60
2023-04-02T16:10:52.388Z,86.74
2023-04-02T16:14:18.345Z,85.79
2023-04-02T16:17:39.567Z,86.50
2023-04-02T16:21:16.168Z,85.78
2023-04-02T16:24:20.017Z,86.08
2023-04-02T16:27:25.451Z,85.71
2023-04-02T16:30:31.882Z,85.72
2023-04-02T16:34:21.400Z,84.88
2023-04-02T16:38:07.127Z,84.82
2023-04-02T16:41:45.533Z,85.32
2023-04-02T16:45:23.022Z,84.99
2023-04-02T16:49:13.624Z,84.66
2023-04-02T16:52:48.239Z,84.82
2023-04-02T16:56:31.522Z,84.39
2023-04-02T16:59:46.872Z,84.86
2023-04-02T17:07:28.473Z,84.22
2023-04-02T17:10:44.818Z,84.12
2023-04-02T17:13:52.702Z,86.46
2023-04-02T17:16:59.182Z,89.09
2023-04-02T17:20:01.618Z,89.29
2023-04-02T17:23:06.658Z,89.15
2023-04-02T17:26:09.656Z,89.64
2023-04-02T17:29:22.540Z,90.49
2023-04-02T17:32:32.909Z,97.90
2023-04-02T17:35:44.189Z,100.00
2023-04-02T17:38:57.135Z,100.00
2023-04-02T17:42:21.135Z,100.00
2023-04-02T17:45:44.265Z,100.00
2023-04-02T17:48:49.676Z,100.00
2023-04-02T17:52:14.453Z,100.00
2023-04-02T17:55:20.127Z,100.00
2023-04-02T17:58:52.062Z,100.00
2023-04-02T18:01:57.000Z,87.23
2023-04-02T18:05:39.572Z,83.40
2023-04-02T18:08:50.390Z,83.72
2023-04-02T18:12:25.940Z,89.99
2023-04-02T18:15:38.984Z,92.14
2023-04-02T18:18:53.130Z,93.73
2023-04-02T18:22:23.039Z,79.85
2023-04-02T18:25:43.075Z,72.40
2023-04-02T18:29:22.230Z,69.50
2023-04-02T18:32:57.862Z,69.26
2023-04-02T18:36:11.539Z,67.70
2023-04-02T18:39:34.748Z,66.89
2023-04-02T18:43:07.362Z,67.11
2023-04-02T18:46:09.605Z,66.60
2023-04-02T18:49:27.193Z,65.86
2023-04-02T18:52:30.806Z,66.51
2023-04-02T18:55:34.376Z,66.03
2023-04-02T18:59:21.289Z,66.82
2023-04-02T19:02:45.602Z,66.08
2023-04-02T19:05:55.758Z,70.11
2023-04-02T19:09:01.725Z,72.39
2023-04-02T19:12:23.839Z,73.99
2023-04-02T19:15:43.484Z,74.90
2023-04-02T19:18:46.052Z,75.91
2023-04-02T19:21:51.745Z,76.50
2023-04-02T19:25:26.486Z,77.49
2023-04-02T19:28:43.236Z,77.60
2023-04-02T19:32:01.487Z,78.12
2023-04-02T19:35:29.036Z,79.22
2023-04-02T19:38:53.924Z,79.61
2023-04-02T19:42:11.565Z,80.55
2023-04-02T19:45:38.336Z,80.89
2023-04-02T19:48:47.184Z,81.12
2023-04-02T19:51:50.357Z,81.77
2023-04-02T19:54:52.736Z,81.17
2023-04-02T19:58:08.385Z,81.39
2023-04-02T20:01:17.224Z,81.84
2023-04-02T20:04:22.538Z,82.42
2023-04-02T20:07:24.615Z,82.43
2023-04-02T20:10:26.782Z,81.65
2023-04-02T20:14:24.797Z,81.66
2023-04-02T20:17:34.160Z,82.49
2023-04-02T20:20:39.506Z,82.25
2023-04-02T20:23:42.344Z,82.27
2023-04-02T20:26:44.797Z,81.89
2023-04-02T20:29:48.549Z,82.59
2023-04-02T20:32:50.816Z,82.65
2023-04-02T20:35:53.042Z,82.63
2023-04-02T20:38:55.236Z,82.17
2023-04-02T20:42:01.336Z,83.03
2023-04-02T20:45:05.359Z,82.20
2023-04-02T20:48:07.535Z,82.30
2023-04-02T20:51:13.203Z,82.29
2023-04-02T20:54:15.433Z,82.10
2023-04-02T20:57:19.760Z,81.42
2023-04-02T21:00:23.041Z,81.62
2023-04-02T21:03:25.105Z,81.92
2023-04-02T21:06:31.500Z,81.21
2023-04-02T21:09:34.118Z,81.36
2023-04-02T21:12:36.221Z,81.90
2023-04-02T21:15:43.136Z,81.80
2023-04-02T21:18:46.549Z,81.70
2023-04-02T21:21:48.818Z,81.06
2023-04-02T21:24:51.508Z,81.13
2023-04-02T21:27:53.613Z,81.09
2023-04-02T21:31:03.983Z,81.11
2023-04-02T21:34:08.530Z,80.71
2023-04-02T21:37:10.671Z,80.84
2023-04-02T21:40:12.749Z,81.36
2023-04-02T21:43:15.114Z,81.64
2023-04-02T21:46:20.092Z,81.01
2023-04-02T21:49:23.538Z,82.13
2023-04-02T21:52:25.743Z,82.29
2023-04-02T21:55:27.925Z,81.47
2023-04-02T21:58:30.146Z,81.73
2023-04-02T22:01:36.844Z,82.20
2023-04-02T22:04:41.552Z,81.68
2023-04-02T22:07:43.567Z,81.84
2023-04-02T22:10:47.226Z,82.09
2023-04-02T22:13:50.194Z,82.09
2023-04-02T22:16:52.524Z,82.22
2023-04-02T22:19:54.801Z,82.19
2023-04-02T22:22:57.427Z,81.01
2023-04-02T22:26:01.014Z,81.62
2023-04-02T22:29:03.780Z,81.45
2023-04-02T22:32:06.064Z,81.11
2023-04-02T22:35:08.636Z,81.92
2023-04-02T22:38:11.343Z,81.75
2023-04-02T22:41:18.944Z,82.00
2023-04-02T22:44:21.359Z,81.99
2023-04-02T22:47:23.612Z,81.24
2023-04-02T22:50:26.451Z,81.33
2023-04-02T22:53:28.738Z,81.55
2023-04-02T22:56:35.443Z,81.18
2023-04-02T22:59:37.551Z,81.00
2023-04-02T23:02:39.656Z,81.46
2023-04-02T23:05:42.624Z,81.21
2023-04-02T23:08:45.937Z,81.99
2023-04-02T23:11:47.999Z,83.25
2023-04-02T23:14:50.084Z,81.52
2023-04-02T23:17:52.154Z,81.41
2023-04-02T23:20:55.689Z,82.37
2023-04-02T23:23:58.720Z,82.82
2023-04-02T23:27:01.213Z,81.69
2023-04-02T23:30:03.497Z,82.17
2023-04-02T23:33:06.746Z,82.32
2023-04-02T23:36:31.709Z,82.57
2023-04-02T23:39:33.964Z,81.76
2023-04-02T23:42:36.066Z,82.54
2023-04-02T23:45:38.370Z,81.61
2023-04-02T23:48:40.828Z,81.45
2023-04-02T23:51:43.240Z,81.94
2023-04-02T23:54:45.368Z,81.82
2023-04-02T23:57:47.529Z,80.90
